sensor_id;sensor_type;location;lat;lon;timestamp;P1;durP1;ratioP1;P2;durP2;ratioP2
5730;SDS011;2890;51.950;7.668;2023-07-20T00:01:24;9.67;;;8.53;;
5730;SDS011;2890;51.950;7.668;2023-07-20T00:03:51;8.37;;;7.87;;
5730;SDS011;2890;51.950;7.668;2023-07-20T00:06:20;9.53;;;8.63;;
5730;SDS011;2890;51.950;7.668;2023-07-20T00:08:50;8.63;;;7.97;;
5730;SDS011;2890;51.950;7.668;2023-07-20T00:11:19;9.47;;;8.50;;
5730;SDS011;2890;51.950;7.668;2023-07-20T00:13:47;8.83;;;8.03;;
5730;SDS011;2890;51.950;7.668;2023-07-20T00:16:13;10.13;;;9.20;;
5730;SDS011;2890;51.950;7.668;2023-07-20T00:18:40;9.20;;;8.40;;
5730;SDS011;2890;51.950;7.668;2023-07-20T00:21:06;9.33;;;8.50;;
5730;SDS011;2890;51.950;7.668;2023-07-20T00:23:33;10.87;;;8.30;;
5730;SDS011;2890;51.950;7.668;2023-07-20T00:25:59;10.10;;;9.20;;
5730;SDS011;2890;51.950;7.668;2023-07-20T00:28:26;9.93;;;9.23;;
5730;SDS011;2890;51.950;7.668;2023-07-20T00:30:54;9.63;;;8.83;;
5730;SDS011;2890;51.950;7.668;2023-07-20T00:33:20;9.80;;;9.00;;
5730;SDS011;2890;51.950;7.668;2023-07-20T00:35:47;14.90;;;8.93;;
5730;SDS011;2890;51.950;7.668;2023-07-20T00:38:13;9.30;;;8.70;;
5730;SDS011;2890;51.950;7.668;2023-07-20T00:40:40;11.20;;;10.10;;
5730;SDS011;2890;51.950;7.668;2023-07-20T00:43:07;9.70;;;9.00;;
5730;SDS011;2890;51.950;7.668;2023-07-20T00:45:34;11.00;;;10.00;;
5730;SDS011;2890;51.950;7.668;2023-07-20T00:48:04;10.13;;;9.13;;
5730;SDS011;2890;51.950;7.668;2023-07-20T00:50:31;10.73;;;9.80;;
5730;SDS011;2890;51.950;7.668;2023-07-20T00:52:58;9.97;;;9.30;;
5730;SDS011;2890;51.950;7.668;2023-07-20T00:55:25;9.20;;;8.50;;
5730;SDS011;2890;51.950;7.668;2023-07-20T00:57:52;10.77;;;9.80;;
5730;SDS011;2890;51.950;7.668;2023-07-20T01:00:19;10.27;;;9.57;;
5730;SDS011;2890;51.950;7.668;2023-07-20T01:02:46;11.33;;;9.20;;
5730;SDS011;2890;51.950;7.668;2023-07-20T01:05:14;10.47;;;9.63;;
5730;SDS011;2890;51.950;7.668;2023-07-20T01:07:43;9.30;;;8.70;;
5730;SDS011;2890;51.950;7.668;2023-07-20T01:10:16;10.27;;;9.37;;
5730;SDS011;2890;51.950;7.668;2023-07-20T01:12:47;9.93;;;9.33;;
5730;SDS011;2890;51.950;7.668;2023-07-20T01:15:14;11.47;;;9.83;;
5730;SDS011;2890;51.950;7.668;2023-07-20T01:17:41;10.57;;;9.80;;
5730;SDS011;2890;51.950;7.668;2023-07-20T01:20:08;10.10;;;9.20;;
5730;SDS011;2890;51.950;7.668;2023-07-20T01:22:50;10.80;;;9.80;;
5730;SDS011;2890;51.950;7.668;2023-07-20T01:25:34;10.37;;;9.57;;
5730;SDS011;2890;51.950;7.668;2023-07-20T01:28:16;12.50;;;9.87;;
5730;SDS011;2890;51.950;7.668;2023-07-20T01:30:56;10.93;;;9.83;;
5730;SDS011;2890;51.950;7.668;2023-07-20T01:33:27;14.87;;;10.10;;
5730;SDS011;2890;51.950;7.668;2023-07-20T01:35:56;11.70;;;10.10;;
5730;SDS011;2890;51.950;7.668;2023-07-20T01:38:23;9.80;;;9.10;;
5730;SDS011;2890;51.950;7.668;2023-07-20T01:40:50;12.03;;;10.87;;
5730;SDS011;2890;51.950;7.668;2023-07-20T01:43:17;11.20;;;10.20;;
5730;SDS011;2890;51.950;7.668;2023-07-20T01:45:44;11.03;;;10.20;;
5730;SDS011;2890;51.950;7.668;2023-07-20T01:48:11;11.97;;;10.97;;
5730;SDS011;2890;51.950;7.668;2023-07-20T01:50:39;12.23;;;11.23;;
5730;SDS011;2890;51.950;7.668;2023-07-20T01:53:05;11.70;;;10.50;;
5730;SDS011;2890;51.950;7.668;2023-07-20T01:55:32;11.63;;;10.63;;
5730;SDS011;2890;51.950;7.668;2023-07-20T01:57:58;10.90;;;10.10;;
5730;SDS011;2890;51.950;7.668;2023-07-20T02:00:26;12.53;;;11.40;;
5730;SDS011;2890;51.950;7.668;2023-07-20T02:02:53;14.27;;;10.40;;
5730;SDS011;2890;51.950;7.668;2023-07-20T02:05:19;11.00;;;10.30;;
5730;SDS011;2890;51.950;7.668;2023-07-20T02:07:47;11.80;;;10.80;;
5730;SDS011;2890;51.950;7.668;2023-07-20T02:10:14;11.50;;;10.50;;
5730;SDS011;2890;51.950;7.668;2023-07-20T02:12:41;11.90;;;10.80;;
5730;SDS011;2890;51.950;7.668;2023-07-20T02:15:07;10.70;;;9.83;;
5730;SDS011;2890;51.950;7.668;2023-07-20T02:17:35;11.70;;;10.80;;
5730;SDS011;2890;51.950;7.668;2023-07-20T02:20:02;15.73;;;13.23;;
5730;SDS011;2890;51.950;7.668;2023-07-20T02:22:29;28.30;;;21.70;;
5730;SDS011;2890;51.950;7.668;2023-07-20T02:24:57;27.80;;;23.77;;
5730;SDS011;2890;51.950;7.668;2023-07-20T02:27:23;57.37;;;33.10;;
5730;SDS011;2890;51.950;7.668;2023-07-20T02:29:50;44.73;;;30.43;;
5730;SDS011;2890;51.950;7.668;2023-07-20T02:32:16;51.37;;;32.77;;
5730;SDS011;2890;51.950;7.668;2023-07-20T02:34:43;50.57;;;31.37;;
5730;SDS011;2890;51.950;7.668;2023-07-20T02:37:09;58.83;;;34.00;;
5730;SDS011;2890;51.950;7.668;2023-07-20T02:39:38;71.50;;;37.77;;
5730;SDS011;2890;51.950;7.668;2023-07-20T02:42:06;95.50;;;43.47;;
5730;SDS011;2890;51.950;7.668;2023-07-20T02:44:32;87.70;;;43.30;;
5730;SDS011;2890;51.950;7.668;2023-07-20T02:46:59;81.00;;;42.90;;
5730;SDS011;2890;51.950;7.668;2023-07-20T02:49:25;69.43;;;40.97;;
5730;SDS011;2890;51.950;7.668;2023-07-20T02:51:52;51.77;;;36.37;;
5730;SDS011;2890;51.950;7.668;2023-07-20T02:54:19;105.97;;;45.77;;
5730;SDS011;2890;51.950;7.668;2023-07-20T02:56:45;83.17;;;43.90;;
5730;SDS011;2890;51.950;7.668;2023-07-20T02:59:13;47.60;;;33.83;;
5730;SDS011;2890;51.950;7.668;2023-07-20T03:01:40;63.47;;;39.00;;
5730;SDS011;2890;51.950;7.668;2023-07-20T03:04:07;50.57;;;35.37;;
5730;SDS011;2890;51.950;7.668;2023-07-20T03:06:35;57.23;;;37.43;;
5730;SDS011;2890;51.950;7.668;2023-07-20T03:09:06;47.43;;;33.03;;
5730;SDS011;2890;51.950;7.668;2023-07-20T03:11:34;65.80;;;38.07;;
5730;SDS011;2890;51.950;7.668;2023-07-20T03:14:01;50.53;;;35.37;;
5730;SDS011;2890;51.950;7.668;2023-07-20T03:16:28;67.13;;;36.77;;
5730;SDS011;2890;51.950;7.668;2023-07-20T03:18:58;56.00;;;33.23;;
5730;SDS011;2890;51.950;7.668;2023-07-20T03:21:24;63.50;;;34.80;;
5730;SDS011;2890;51.950;7.668;2023-07-20T03:23:51;54.13;;;31.83;;
5730;SDS011;2890;51.950;7.668;2023-07-20T03:26:17;38.60;;;27.80;;
5730;SDS011;2890;51.950;7.668;2023-07-20T03:28:44;41.60;;;27.87;;
5730;SDS011;2890;51.950;7.668;2023-07-20T03:31:10;41.93;;;27.80;;
5730;SDS011;2890;51.950;7.668;2023-07-20T03:33:38;35.57;;;26.47;;
5730;SDS011;2890;51.950;7.668;2023-07-20T03:36:05;42.90;;;27.97;;
5730;SDS011;2890;51.950;7.668;2023-07-20T03:38:32;40.27;;;27.70;;
5730;SDS011;2890;51.950;7.668;2023-07-20T03:40:59;35.07;;;26.17;;
5730;SDS011;2890;51.950;7.668;2023-07-20T03:43:26;50.57;;;28.73;;
5730;SDS011;2890;51.950;7.668;2023-07-20T03:45:54;32.13;;;25.20;;
5730;SDS011;2890;51.950;7.668;2023-07-20T03:48:22;32.73;;;25.20;;
5730;SDS011;2890;51.950;7.668;2023-07-20T03:50:51;43.93;;;28.60;;
5730;SDS011;2890;51.950;7.668;2023-07-20T03:53:18;35.23;;;26.77;;
5730;SDS011;2890;51.950;7.668;2023-07-20T03:55:45;59.00;;;33.13;;
5730;SDS011;2890;51.950;7.668;2023-07-20T03:58:12;46.97;;;30.20;;
5730;SDS011;2890;51.950;7.668;2023-07-20T04:00:39;45.00;;;29.87;;
5730;SDS011;2890;51.950;7.668;2023-07-20T04:03:05;34.47;;;26.87;;
5730;SDS011;2890;51.950;7.668;2023-07-20T04:05:32;36.53;;;26.80;;
5730;SDS011;2890;51.950;7.668;2023-07-20T04:08:00;36.47;;;27.47;;
5730;SDS011;2890;51.950;7.668;2023-07-20T04:10:26;37.37;;;26.57;;
5730;SDS011;2890;51.950;7.668;2023-07-20T04:12:53;30.50;;;24.70;;
5730;SDS011;2890;51.950;7.668;2023-07-20T04:15:19;36.30;;;26.97;;
5730;SDS011;2890;51.950;7.668;2023-07-20T04:17:46;36.17;;;27.23;;
5730;SDS011;2890;51.950;7.668;2023-07-20T04:20:12;26.53;;;23.17;;
5730;SDS011;2890;51.950;7.668;2023-07-20T04:22:39;27.73;;;24.87;;
5730;SDS011;2890;51.950;7.668;2023-07-20T04:25:07;30.77;;;23.23;;
5730;SDS011;2890;51.950;7.668;2023-07-20T04:27:34;32.57;;;26.00;;
5730;SDS011;2890;51.950;7.668;2023-07-20T04:30:01;23.77;;;21.43;;
5730;SDS011;2890;51.950;7.668;2023-07-20T04:32:28;27.97;;;24.20;;
5730;SDS011;2890;51.950;7.668;2023-07-20T04:34:55;33.07;;;26.00;;
5730;SDS011;2890;51.950;7.668;2023-07-20T04:37:22;29.23;;;24.47;;
5730;SDS011;2890;51.950;7.668;2023-07-20T04:39:48;25.43;;;22.80;;
5730;SDS011;2890;51.950;7.668;2023-07-20T04:42:16;27.40;;;24.50;;
5730;SDS011;2890;51.950;7.668;2023-07-20T04:44:45;28.23;;;24.23;;
5730;SDS011;2890;51.950;7.668;2023-07-20T04:47:12;25.50;;;22.90;;
5730;SDS011;2890;51.950;7.668;2023-07-20T04:49:38;25.87;;;23.13;;
5730;SDS011;2890;51.950;7.668;2023-07-20T04:52:06;27.53;;;23.47;;
5730;SDS011;2890;51.950;7.668;2023-07-20T04:54:32;29.33;;;25.50;;
5730;SDS011;2890;51.950;7.668;2023-07-20T04:56:59;28.67;;;25.53;;
5730;SDS011;2890;51.950;7.668;2023-07-20T04:59:27;27.70;;;24.90;;
5730;SDS011;2890;51.950;7.668;2023-07-20T05:01:54;28.07;;;24.87;;
5730;SDS011;2890;51.950;7.668;2023-07-20T05:04:22;29.23;;;26.00;;
5730;SDS011;2890;51.950;7.668;2023-07-20T05:06:48;30.43;;;27.30;;
5730;SDS011;2890;51.950;7.668;2023-07-20T05:09:15;27.37;;;24.13;;
5730;SDS011;2890;51.950;7.668;2023-07-20T05:11:41;25.33;;;22.80;;
5730;SDS011;2890;51.950;7.668;2023-07-20T05:14:10;22.90;;;20.90;;
5730;SDS011;2890;51.950;7.668;2023-07-20T05:16:38;26.83;;;24.13;;
5730;SDS011;2890;51.950;7.668;2023-07-20T05:19:04;26.60;;;24.07;;
5730;SDS011;2890;51.950;7.668;2023-07-20T05:21:30;26.10;;;23.43;;
5730;SDS011;2890;51.950;7.668;2023-07-20T05:23:57;23.63;;;21.53;;
5730;SDS011;2890;51.950;7.668;2023-07-20T05:26:23;22.23;;;20.40;;
5730;SDS011;2890;51.950;7.668;2023-07-20T05:28:50;23.60;;;21.60;;
5730;SDS011;2890;51.950;7.668;2023-07-20T05:31:16;19.70;;;18.10;;
5730;SDS011;2890;51.950;7.668;2023-07-20T05:33:44;17.67;;;16.23;;
5730;SDS011;2890;51.950;7.668;2023-07-20T05:36:11;16.77;;;15.57;;
5730;SDS011;2890;51.950;7.668;2023-07-20T05:38:37;14.90;;;13.90;;
5730;SDS011;2890;51.950;7.668;2023-07-20T05:41:04;13.50;;;12.40;;
5730;SDS011;2890;51.950;7.668;2023-07-20T05:43:32;11.90;;;11.10;;
5730;SDS011;2890;51.950;7.668;2023-07-20T05:45:58;10.97;;;10.23;;
5730;SDS011;2890;51.950;7.668;2023-07-20T05:48:25;9.10;;;8.40;;
5730;SDS011;2890;51.950;7.668;2023-07-20T05:50:53;9.73;;;9.00;;
5730;SDS011;2890;51.950;7.668;2023-07-20T05:53:19;10.70;;;9.90;;
5730;SDS011;2890;51.950;7.668;2023-07-20T05:55:51;11.50;;;10.53;;
5730;SDS011;2890;51.950;7.668;2023-07-20T05:58:18;10.57;;;9.97;;
5730;SDS011;2890;51.950;7.668;2023-07-20T06:00:47;10.40;;;9.70;;
5730;SDS011;2890;51.950;7.668;2023-07-20T06:03:13;10.50;;;9.60;;
5730;SDS011;2890;51.950;7.668;2023-07-20T06:05:41;11.50;;;10.70;;
5730;SDS011;2890;51.950;7.668;2023-07-20T06:08:09;9.40;;;8.80;;
5730;SDS011;2890;51.950;7.668;2023-07-20T06:10:36;10.80;;;10.10;;
5730;SDS011;2890;51.950;7.668;2023-07-20T06:13:02;10.57;;;9.97;;
5730;SDS011;2890;51.950;7.668;2023-07-20T06:15:31;9.90;;;9.20;;
5730;SDS011;2890;51.950;7.668;2023-07-20T06:17:59;8.10;;;7.50;;
5730;SDS011;2890;51.950;7.668;2023-07-20T06:20:26;8.20;;;7.73;;
5730;SDS011;2890;51.950;7.668;2023-07-20T06:22:53;7.60;;;7.20;;
5730;SDS011;2890;51.950;7.668;2023-07-20T06:25:21;7.60;;;7.07;;
5730;SDS011;2890;51.950;7.668;2023-07-20T06:27:52;7.47;;;6.97;;
5730;SDS011;2890;51.950;7.668;2023-07-20T06:30:20;7.80;;;7.37;;
5730;SDS011;2890;51.950;7.668;2023-07-20T06:32:46;7.60;;;7.20;;
5730;SDS011;2890;51.950;7.668;2023-07-20T06:35:13;7.97;;;7.47;;
5730;SDS011;2890;51.950;7.668;2023-07-20T06:37:40;8.73;;;8.23;;
5730;SDS011;2890;51.950;7.668;2023-07-20T06:40:07;8.93;;;8.53;;
5730;SDS011;2890;51.950;7.668;2023-07-20T06:42:36;7.37;;;7.07;;
5730;SDS011;2890;51.950;7.668;2023-07-20T06:45:03;5.80;;;5.40;;
5730;SDS011;2890;51.950;7.668;2023-07-20T06:47:30;6.10;;;4.87;;
5730;SDS011;2890;51.950;7.668;2023-07-20T06:49:57;6.43;;;5.60;;
5730;SDS011;2890;51.950;7.668;2023-07-20T06:52:23;6.30;;;4.77;;
5730;SDS011;2890;51.950;7.668;2023-07-20T06:54:50;70.57;;;19.17;;
5730;SDS011;2890;51.950;7.668;2023-07-20T06:57:16;75.27;;;24.53;;
5730;SDS011;2890;51.950;7.668;2023-07-20T06:59:44;8.20;;;4.70;;
5730;SDS011;2890;51.950;7.668;2023-07-20T07:02:11;3.70;;;3.40;;
5730;SDS011;2890;51.950;7.668;2023-07-20T07:04:37;12.07;;;6.43;;
5730;SDS011;2890;51.950;7.668;2023-07-20T07:07:04;26.27;;;13.13;;
5730;SDS011;2890;51.950;7.668;2023-07-20T07:09:30;10.93;;;7.07;;
5730;SDS011;2890;51.950;7.668;2023-07-20T07:11:59;3.73;;;3.43;;
5730;SDS011;2890;51.950;7.668;2023-07-20T07:14:26;5.60;;;3.67;;
5730;SDS011;2890;51.950;7.668;2023-07-20T07:16:53;3.27;;;3.07;;
5730;SDS011;2890;51.950;7.668;2023-07-20T07:19:20;7.87;;;2.83;;
5730;SDS011;2890;51.950;7.668;2023-07-20T07:21:46;5.83;;;3.70;;
5730;SDS011;2890;51.950;7.668;2023-07-20T07:24:13;5.17;;;3.57;;
5730;SDS011;2890;51.950;7.668;2023-07-20T07:26:39;2.23;;;1.90;;
5730;SDS011;2890;51.950;7.668;2023-07-20T07:29:06;3.60;;;2.03;;
5730;SDS011;2890;51.950;7.668;2023-07-20T07:31:33;1.73;;;1.57;;
5730;SDS011;2890;51.950;7.668;2023-07-20T07:34:01;6.00;;;2.93;;
5730;SDS011;2890;51.950;7.668;2023-07-20T07:36:28;6.80;;;3.40;;
5730;SDS011;2890;51.950;7.668;2023-07-20T07:38:54;6.33;;;3.70;;
5730;SDS011;2890;51.950;7.668;2023-07-20T07:41:21;4.43;;;1.80;;
5730;SDS011;2890;51.950;7.668;2023-07-20T07:43:48;3.00;;;1.73;;
5730;SDS011;2890;51.950;7.668;2023-07-20T07:46:14;1.90;;;1.60;;
5730;SDS011;2890;51.950;7.668;2023-07-20T07:48:41;2.17;;;1.80;;
5730;SDS011;2890;51.950;7.668;2023-07-20T07:51:09;1.57;;;1.30;;
5730;SDS011;2890;51.950;7.668;2023-07-20T07:53:37;10.20;;;9.33;;
5730;SDS011;2890;51.950;7.668;2023-07-20T07:56:06;8.40;;;7.80;;
5730;SDS011;2890;51.950;7.668;2023-07-20T07:58:33;3.80;;;2.90;;
5730;SDS011;2890;51.950;7.668;2023-07-20T08:00:59;2.80;;;2.60;;
5730;SDS011;2890;51.950;7.668;2023-07-20T08:03:26;4.13;;;3.67;;
5730;SDS011;2890;51.950;7.668;2023-07-20T08:05:53;2.17;;;1.50;;
5730;SDS011;2890;51.950;7.668;2023-07-20T08:08:21;2.93;;;1.67;;
5730;SDS011;2890;51.950;7.668;2023-07-20T08:10:48;2.00;;;1.77;;
5730;SDS011;2890;51.950;7.668;2023-07-20T08:13:15;1.80;;;1.57;;
5730;SDS011;2890;51.950;7.668;2023-07-20T08:15:48;2.00;;;1.80;;
5730;SDS011;2890;51.950;7.668;2023-07-20T08:18:15;2.00;;;1.80;;
5730;SDS011;2890;51.950;7.668;2023-07-20T08:20:43;1.63;;;1.40;;
5730;SDS011;2890;51.950;7.668;2023-07-20T08:23:10;2.07;;;1.40;;
5730;SDS011;2890;51.950;7.668;2023-07-20T08:25:37;2.33;;;1.60;;
5730;SDS011;2890;51.950;7.668;2023-07-20T08:28:07;3.43;;;1.40;;
5730;SDS011;2890;51.950;7.668;2023-07-20T08:30:39;2.37;;;1.30;;
5730;SDS011;2890;51.950;7.668;2023-07-20T08:33:06;2.13;;;1.40;;
5730;SDS011;2890;51.950;7.668;2023-07-20T08:35:33;4.90;;;1.40;;
5730;SDS011;2890;51.950;7.668;2023-07-20T08:38:00;1.80;;;1.40;;
5730;SDS011;2890;51.950;7.668;2023-07-20T08:40:26;2.50;;;1.47;;
5730;SDS011;2890;51.950;7.668;2023-07-20T08:42:54;2.13;;;1.40;;
5730;SDS011;2890;51.950;7.668;2023-07-20T08:45:22;1.60;;;1.43;;
5730;SDS011;2890;51.950;7.668;2023-07-20T08:47:48;3.60;;;1.30;;
5730;SDS011;2890;51.950;7.668;2023-07-20T08:50:16;1.70;;;1.40;;
5730;SDS011;2890;51.950;7.668;2023-07-20T08:52:42;1.70;;;1.50;;
5730;SDS011;2890;51.950;7.668;2023-07-20T08:55:09;6.10;;;5.67;;
5730;SDS011;2890;51.950;7.668;2023-07-20T08:57:36;3.20;;;2.90;;
5730;SDS011;2890;51.950;7.668;2023-07-20T09:00:04;2.73;;;2.40;;
5730;SDS011;2890;51.950;7.668;2023-07-20T09:02:32;4.63;;;4.33;;
5730;SDS011;2890;51.950;7.668;2023-07-20T09:05:02;1.60;;;1.50;;
5730;SDS011;2890;51.950;7.668;2023-07-20T09:07:29;6.00;;;3.83;;
5730;SDS011;2890;51.950;7.668;2023-07-20T09:09:57;1.37;;;1.20;;
5730;SDS011;2890;51.950;7.668;2023-07-20T09:12:30;2.43;;;1.40;;
5730;SDS011;2890;51.950;7.668;2023-07-20T09:14:57;5.87;;;1.30;;
5730;SDS011;2890;51.950;7.668;2023-07-20T09:17:26;1.87;;;1.33;;
5730;SDS011;2890;51.950;7.668;2023-07-20T09:19:53;1.70;;;1.50;;
5730;SDS011;2890;51.950;7.668;2023-07-20T09:22:20;2.13;;;1.30;;
5730;SDS011;2890;51.950;7.668;2023-07-20T09:24:46;2.20;;;2.00;;
5730;SDS011;2890;51.950;7.668;2023-07-20T09:27:13;1.70;;;1.60;;
5730;SDS011;2890;51.950;7.668;2023-07-20T09:29:47;1.50;;;1.40;;
5730;SDS011;2890;51.950;7.668;2023-07-20T09:32:17;1.40;;;1.20;;
5730;SDS011;2890;51.950;7.668;2023-07-20T09:34:46;2.00;;;1.73;;
5730;SDS011;2890;51.950;7.668;2023-07-20T09:37:12;1.60;;;1.30;;
5730;SDS011;2890;51.950;7.668;2023-07-20T09:39:42;2.27;;;1.47;;
5730;SDS011;2890;51.950;7.668;2023-07-20T09:42:09;5.00;;;1.90;;
5730;SDS011;2890;51.950;7.668;2023-07-20T09:44:37;2.20;;;1.50;;
5730;SDS011;2890;51.950;7.668;2023-07-20T09:47:04;1.90;;;1.20;;
5730;SDS011;2890;51.950;7.668;2023-07-20T09:49:31;2.00;;;1.50;;
5730;SDS011;2890;51.950;7.668;2023-07-20T09:51:59;2.50;;;1.37;;
5730;SDS011;2890;51.950;7.668;2023-07-20T09:54:27;1.70;;;1.20;;
5730;SDS011;2890;51.950;7.668;2023-07-20T09:56:54;2.07;;;1.83;;
5730;SDS011;2890;51.950;7.668;2023-07-20T09:59:22;2.70;;;1.40;;
5730;SDS011;2890;51.950;7.668;2023-07-20T10:01:48;1.80;;;1.10;;
5730;SDS011;2890;51.950;7.668;2023-07-20T10:04:15;2.27;;;1.20;;
5730;SDS011;2890;51.950;7.668;2023-07-20T10:06:43;1.60;;;1.00;;
5730;SDS011;2890;51.950;7.668;2023-07-20T10:09:12;2.47;;;1.03;;
5730;SDS011;2890;51.950;7.668;2023-07-20T10:11:42;1.70;;;1.20;;
5730;SDS011;2890;51.950;7.668;2023-07-20T10:14:12;1.90;;;1.30;;
5730;SDS011;2890;51.950;7.668;2023-07-20T10:16:42;1.93;;;1.33;;
5730;SDS011;2890;51.950;7.668;2023-07-20T10:19:13;1.67;;;1.20;;
5730;SDS011;2890;51.950;7.668;2023-07-20T10:21:47;3.43;;;2.80;;
5730;SDS011;2890;51.950;7.668;2023-07-20T10:24:16;1.70;;;1.10;;
5730;SDS011;2890;51.950;7.668;2023-07-20T10:26:42;1.80;;;1.07;;
5730;SDS011;2890;51.950;7.668;2023-07-20T10:29:09;1.70;;;1.40;;
5730;SDS011;2890;51.950;7.668;2023-07-20T10:31:35;1.80;;;1.30;;
5730;SDS011;2890;51.950;7.668;2023-07-20T10:34:02;1.40;;;1.20;;
5730;SDS011;2890;51.950;7.668;2023-07-20T10:36:29;1.40;;;1.10;;
5730;SDS011;2890;51.950;7.668;2023-07-20T10:38:56;1.50;;;1.40;;
5730;SDS011;2890;51.950;7.668;2023-07-20T10:41:28;1.53;;;1.23;;
5730;SDS011;2890;51.950;7.668;2023-07-20T10:43:57;3.10;;;1.57;;
5730;SDS011;2890;51.950;7.668;2023-07-20T10:46:34;1.40;;;1.10;;
5730;SDS011;2890;51.950;7.668;2023-07-20T10:49:11;1.50;;;1.40;;
5730;SDS011;2890;51.950;7.668;2023-07-20T10:51:40;1.70;;;1.20;;
5730;SDS011;2890;51.950;7.668;2023-07-20T10:54:07;2.33;;;1.67;;
5730;SDS011;2890;51.950;7.668;2023-07-20T10:56:36;2.00;;;1.70;;
5730;SDS011;2890;51.950;7.668;2023-07-20T10:59:04;2.30;;;1.60;;
5730;SDS011;2890;51.950;7.668;2023-07-20T11:01:49;3.30;;;1.33;;
5730;SDS011;2890;51.950;7.668;2023-07-20T11:04:16;1.47;;;1.30;;
5730;SDS011;2890;51.950;7.668;2023-07-20T11:06:43;1.43;;;1.20;;
5730;SDS011;2890;51.950;7.668;2023-07-20T11:09:11;2.47;;;1.70;;
5730;SDS011;2890;51.950;7.668;2023-07-20T11:11:41;1.80;;;1.20;;
5730;SDS011;2890;51.950;7.668;2023-07-20T11:14:09;1.60;;;1.20;;
5730;SDS011;2890;51.950;7.668;2023-07-20T11:16:37;1.50;;;1.20;;
5730;SDS011;2890;51.950;7.668;2023-07-20T11:19:05;1.40;;;1.23;;
5730;SDS011;2890;51.950;7.668;2023-07-20T11:21:37;2.83;;;1.50;;
5730;SDS011;2890;51.950;7.668;2023-07-20T11:24:05;1.30;;;1.10;;
5730;SDS011;2890;51.950;7.668;2023-07-20T11:26:46;2.17;;;1.27;;
5730;SDS011;2890;51.950;7.668;2023-07-20T11:29:14;1.50;;;1.27;;
5730;SDS011;2890;51.950;7.668;2023-07-20T11:31:42;1.70;;;1.20;;
5730;SDS011;2890;51.950;7.668;2023-07-20T11:34:10;1.50;;;1.03;;
5730;SDS011;2890;51.950;7.668;2023-07-20T11:36:39;1.40;;;1.00;;
5730;SDS011;2890;51.950;7.668;2023-07-20T11:39:07;1.40;;;1.00;;
5730;SDS011;2890;51.950;7.668;2023-07-20T11:41:34;1.80;;;1.07;;
5730;SDS011;2890;51.950;7.668;2023-07-20T11:44:02;1.40;;;1.13;;
5730;SDS011;2890;51.950;7.668;2023-07-20T11:46:29;1.50;;;0.80;;
5730;SDS011;2890;51.950;7.668;2023-07-20T11:48:59;1.93;;;1.07;;
5730;SDS011;2890;51.950;7.668;2023-07-20T11:51:26;1.50;;;1.10;;
5730;SDS011;2890;51.950;7.668;2023-07-20T11:53:53;1.33;;;0.80;;
5730;SDS011;2890;51.950;7.668;2023-07-20T11:56:20;1.33;;;0.70;;
5730;SDS011;2890;51.950;7.668;2023-07-20T11:58:46;1.50;;;1.10;;
5730;SDS011;2890;51.950;7.668;2023-07-20T12:01:14;1.43;;;0.87;;
5730;SDS011;2890;51.950;7.668;2023-07-20T12:03:42;1.73;;;1.00;;
5730;SDS011;2890;51.950;7.668;2023-07-20T12:06:09;4.20;;;1.63;;
5730;SDS011;2890;51.950;7.668;2023-07-20T12:08:38;2.73;;;1.03;;
5730;SDS011;2890;51.950;7.668;2023-07-20T12:11:05;1.80;;;1.13;;
5730;SDS011;2890;51.950;7.668;2023-07-20T12:13:36;2.33;;;1.00;;
5730;SDS011;2890;51.950;7.668;2023-07-20T12:16:06;2.00;;;1.20;;
5730;SDS011;2890;51.950;7.668;2023-07-20T12:18:36;2.23;;;0.80;;
5730;SDS011;2890;51.950;7.668;2023-07-20T12:21:03;1.33;;;0.87;;
5730;SDS011;2890;51.950;7.668;2023-07-20T12:23:34;2.23;;;0.90;;
5730;SDS011;2890;51.950;7.668;2023-07-20T12:26:01;1.50;;;1.23;;
5730;SDS011;2890;51.950;7.668;2023-07-20T12:31:11;1.57;;;0.80;;
5730;SDS011;2890;51.950;7.668;2023-07-20T12:33:40;1.60;;;1.00;;
5730;SDS011;2890;51.950;7.668;2023-07-20T12:36:06;2.53;;;0.80;;
5730;SDS011;2890;51.950;7.668;2023-07-20T12:38:33;1.20;;;0.70;;
5730;SDS011;2890;51.950;7.668;2023-07-20T12:41:00;1.60;;;0.77;;
5730;SDS011;2890;51.950;7.668;2023-07-20T12:43:26;1.73;;;1.10;;
5730;SDS011;2890;51.950;7.668;2023-07-20T12:45:53;1.30;;;0.80;;
5730;SDS011;2890;51.950;7.668;2023-07-20T12:48:20;1.37;;;0.83;;
5730;SDS011;2890;51.950;7.668;2023-07-20T12:50:48;1.73;;;1.03;;
5730;SDS011;2890;51.950;7.668;2023-07-20T12:53:15;1.50;;;0.87;;
5730;SDS011;2890;51.950;7.668;2023-07-20T12:55:41;1.97;;;1.10;;
5730;SDS011;2890;51.950;7.668;2023-07-20T12:58:08;1.50;;;0.90;;
5730;SDS011;2890;51.950;7.668;2023-07-20T13:00:34;1.53;;;0.90;;
5730;SDS011;2890;51.950;7.668;2023-07-20T13:03:01;1.40;;;0.93;;
5730;SDS011;2890;51.950;7.668;2023-07-20T13:05:30;1.43;;;0.93;;
5730;SDS011;2890;51.950;7.668;2023-07-20T13:07:58;1.60;;;0.70;;
5730;SDS011;2890;51.950;7.668;2023-07-20T13:10:24;1.40;;;0.90;;
5730;SDS011;2890;51.950;7.668;2023-07-20T13:12:51;1.63;;;0.90;;
5730;SDS011;2890;51.950;7.668;2023-07-20T13:15:17;1.50;;;1.20;;
5730;SDS011;2890;51.950;7.668;2023-07-20T13:17:44;2.03;;;1.00;;
5730;SDS011;2890;51.950;7.668;2023-07-20T13:20:11;2.03;;;0.80;;
5730;SDS011;2890;51.950;7.668;2023-07-20T13:22:37;1.90;;;1.10;;
5730;SDS011;2890;51.950;7.668;2023-07-20T13:25:07;1.60;;;1.00;;
5730;SDS011;2890;51.950;7.668;2023-07-20T13:27:34;1.30;;;0.80;;
5730;SDS011;2890;51.950;7.668;2023-07-20T13:30:02;1.27;;;0.70;;
5730;SDS011;2890;51.950;7.668;2023-07-20T13:32:31;1.87;;;1.00;;
5730;SDS011;2890;51.950;7.668;2023-07-20T13:34:58;1.90;;;0.93;;
5730;SDS011;2890;51.950;7.668;2023-07-20T13:37:24;1.23;;;0.80;;
5730;SDS011;2890;51.950;7.668;2023-07-20T13:39:52;2.07;;;0.80;;
5730;SDS011;2890;51.950;7.668;2023-07-20T13:42:20;1.50;;;0.83;;
5730;SDS011;2890;51.950;7.668;2023-07-20T13:44:46;1.20;;;0.70;;
5730;SDS011;2890;51.950;7.668;2023-07-20T13:47:13;1.57;;;1.00;;
5730;SDS011;2890;51.950;7.668;2023-07-20T13:49:40;1.33;;;0.90;;
5730;SDS011;2890;51.950;7.668;2023-07-20T13:52:06;2.90;;;0.90;;
5730;SDS011;2890;51.950;7.668;2023-07-20T13:54:34;1.30;;;0.73;;
5730;SDS011;2890;51.950;7.668;2023-07-20T13:57:00;1.93;;;0.90;;
5730;SDS011;2890;51.950;7.668;2023-07-20T13:59:29;1.40;;;1.00;;
5730;SDS011;2890;51.950;7.668;2023-07-20T14:01:55;1.60;;;1.10;;
5730;SDS011;2890;51.950;7.668;2023-07-20T14:04:22;1.60;;;1.20;;
5730;SDS011;2890;51.950;7.668;2023-07-20T14:06:48;2.03;;;1.40;;
5730;SDS011;2890;51.950;7.668;2023-07-20T14:09:16;2.90;;;1.07;;
5730;SDS011;2890;51.950;7.668;2023-07-20T14:11:42;1.50;;;1.00;;
5730;SDS011;2890;51.950;7.668;2023-07-20T14:14:09;1.40;;;1.00;;
5730;SDS011;2890;51.950;7.668;2023-07-20T14:16:37;2.33;;;1.30;;
5730;SDS011;2890;51.950;7.668;2023-07-20T14:19:04;1.50;;;0.90;;
5730;SDS011;2890;51.950;7.668;2023-07-20T14:21:30;1.90;;;1.10;;
5730;SDS011;2890;51.950;7.668;2023-07-20T14:23:58;1.90;;;1.00;;
5730;SDS011;2890;51.950;7.668;2023-07-20T14:26:24;1.60;;;1.03;;
5730;SDS011;2890;51.950;7.668;2023-07-20T14:28:51;1.50;;;1.10;;
5730;SDS011;2890;51.950;7.668;2023-07-20T14:31:17;1.60;;;1.10;;
5730;SDS011;2890;51.950;7.668;2023-07-20T14:33:46;1.67;;;1.00;;
5730;SDS011;2890;51.950;7.668;2023-07-20T14:36:12;1.60;;;1.00;;
5730;SDS011;2890;51.950;7.668;2023-07-20T14:38:39;2.50;;;1.63;;
5730;SDS011;2890;51.950;7.668;2023-07-20T14:41:06;2.17;;;1.00;;
5730;SDS011;2890;51.950;7.668;2023-07-20T14:43:33;2.40;;;1.10;;
5730;SDS011;2890;51.950;7.668;2023-07-20T14:45:59;2.73;;;1.10;;
5730;SDS011;2890;51.950;7.668;2023-07-20T14:48:26;2.53;;;0.97;;
5730;SDS011;2890;51.950;7.668;2023-07-20T14:50:54;2.00;;;1.13;;
5730;SDS011;2890;51.950;7.668;2023-07-20T14:53:21;1.97;;;1.27;;
5730;SDS011;2890;51.950;7.668;2023-07-20T14:55:47;1.23;;;0.87;;
5730;SDS011;2890;51.950;7.668;2023-07-20T14:58:14;2.37;;;1.47;;
5730;SDS011;2890;51.950;7.668;2023-07-20T15:00:40;1.50;;;0.90;;
5730;SDS011;2890;51.950;7.668;2023-07-20T15:03:07;2.27;;;0.93;;
5730;SDS011;2890;51.950;7.668;2023-07-20T15:05:34;4.73;;;0.97;;
5730;SDS011;2890;51.950;7.668;2023-07-20T15:08:03;1.43;;;0.83;;
5730;SDS011;2890;51.950;7.668;2023-07-20T15:10:31;1.40;;;0.90;;